createdAt,value
2023-01-13T00:02:15.950Z,54.52
2023-01-13T00:04:42.476Z,54.49
2023-01-13T00:07:08.924Z,54.36
2023-01-13T00:09:35.384Z,54.41
2023-01-13T00:12:01.851Z,54.37
2023-01-13T00:14:30.161Z,54.57
2023-01-13T00:16:56.599Z,54.46
2023-01-13T00:19:23.213Z,54.67
2023-01-13T00:21:49.645Z,54.54
2023-01-13T00:24:16.081Z,54.49
2023-01-13T00:26:42.525Z,54.54
2023-01-13T00:29:09.051Z,54.21
2023-01-13T00:31:35.551Z,54.47
2023-01-13T00:34:02.610Z,54.46
2023-01-13T00:36:29.116Z,54.26
2023-01-13T00:38:55.588Z,54.20
2023-01-13T00:41:22.722Z,54.54
2023-01-13T00:43:49.241Z,54.33
2023-01-13T00:46:16.477Z,54.27
2023-01-13T00:48:42.953Z,54.22
2023-01-13T00:51:19.073Z,54.31
2023-01-13T00:53:46.553Z,54.19
2023-01-13T00:56:14.517Z,54.43
2023-01-13T00:58:40.999Z,54.38
2023-01-13T01:01:08.117Z,54.35
2023-01-13T01:03:35.389Z,54.65
2023-01-13T01:06:05.894Z,54.46
2023-01-13T01:08:32.436Z,54.59
2023-01-13T01:11:02.451Z,54.56
2023-01-13T01:13:28.920Z,54.68
2023-01-13T01:15:55.395Z,54.64
2023-01-13T01:18:21.845Z,54.61
2023-01-13T01:20:48.283Z,54.50
2023-01-13T01:23:14.719Z,54.45
2023-01-13T01:25:41.158Z,54.66
2023-01-13T01:28:07.589Z,54.52
2023-01-13T01:30:34.074Z,54.49
2023-01-13T01:33:03.161Z,54.60
2023-01-13T01:35:29.605Z,54.52
2023-01-13T01:37:56.125Z,54.56
2023-01-13T01:40:22.611Z,54.65
2023-01-13T01:43:21.497Z,54.68
2023-01-13T01:45:47.959Z,54.64
2023-01-13T01:48:14.404Z,54.52
2023-01-13T01:50:40.841Z,54.62
2023-01-13T01:53:11.870Z,54.52
2023-01-13T01:55:38.313Z,54.54
2023-01-13T01:58:09.967Z,54.68
2023-01-13T02:00:36.426Z,54.61
2023-01-13T02:03:02.889Z,54.57
2023-01-13T02:05:29.349Z,54.68
2023-01-13T02:07:56.362Z,54.62
2023-01-13T02:10:23.953Z,54.59
2023-01-13T02:12:50.389Z,54.52
2023-01-13T02:15:18.107Z,54.51
2023-01-13T02:17:47.950Z,54.64
2023-01-13T02:20:14.385Z,54.69
2023-01-13T02:22:50.084Z,54.68
2023-01-13T02:25:38.936Z,54.65
2023-01-13T02:28:12.759Z,54.74
2023-01-13T02:31:11.512Z,54.66
2023-01-13T02:33:40.536Z,54.60
2023-01-13T02:36:22.166Z,54.76
2023-01-13T02:38:52.219Z,54.63
2023-01-13T02:41:40.132Z,54.61
2023-01-13T02:48:43.995Z,54.60
2023-01-13T02:51:12.322Z,54.44
2023-01-13T02:53:39.927Z,54.48
2023-01-13T02:56:06.408Z,54.53
2023-01-13T02:58:32.868Z,54.52
2023-01-13T03:00:59.381Z,54.35
2023-01-13T03:03:25.772Z,54.28
2023-01-13T03:05:53.643Z,54.48
2023-01-13T03:08:19.909Z,54.48
2023-01-13T03:10:54.958Z,54.63
2023-01-13T03:13:25.538Z,54.41
2023-01-13T03:16:00.043Z,54.38
2023-01-13T03:18:32.474Z,54.47
2023-01-13T03:21:01.839Z,54.27
2023-01-13T03:23:30.207Z,54.37
2023-01-13T03:26:00.357Z,54.30
2023-01-13T03:28:30.240Z,54.29
2023-01-13T03:30:58.755Z,54.31
2023-01-13T03:33:32.452Z,54.18
2023-01-13T03:36:08.398Z,54.38
2023-01-13T03:38:36.579Z,54.26
2023-01-13T03:41:07.664Z,54.38
2023-01-13T03:43:55.544Z,54.44
2023-01-13T03:46:25.661Z,54.42
2023-01-13T03:48:52.381Z,54.47
2023-01-13T03:51:19.697Z,54.65
2023-01-13T03:53:47.562Z,54.48
2023-01-13T03:56:16.111Z,54.55
2023-01-13T03:58:42.940Z,54.58
2023-01-13T04:01:15.502Z,54.53
2023-01-13T04:03:42.744Z,54.75
2023-01-13T04:06:12.395Z,54.71
2023-01-13T04:08:39.894Z,54.65
2023-01-13T04:11:09.902Z,54.68
2023-01-13T04:13:37.018Z,54.85
2023-01-13T04:16:03.366Z,54.71
2023-01-13T04:18:30.485Z,54.97
2023-01-13T04:20:57.281Z,54.72
2023-01-13T04:23:23.710Z,54.79
2023-01-13T04:25:50.031Z,54.80
2023-01-13T04:28:16.413Z,54.74
2023-01-13T04:30:42.811Z,54.75
2023-01-13T04:33:09.238Z,54.72
2023-01-13T04:35:35.572Z,54.79
2023-01-13T04:38:02.404Z,54.93
2023-01-13T04:40:28.734Z,54.75
2023-01-13T04:42:55.052Z,54.65
2023-01-13T04:45:21.390Z,54.68
2023-01-13T04:47:48.581Z,54.79
2023-01-13T04:50:15.009Z,54.77
2023-01-13T04:52:41.338Z,54.87
2023-01-13T04:55:08.014Z,54.94
2023-01-13T04:57:34.990Z,55.02
2023-01-13T05:00:01.953Z,54.91
2023-01-13T05:02:28.278Z,54.87
2023-01-13T05:04:54.637Z,54.92
2023-01-13T05:07:20.980Z,55.05
2023-01-13T05:09:47.290Z,54.83
2023-01-13T05:12:32.201Z,54.84
2023-01-13T05:15:17.055Z,54.96
2023-01-13T05:17:43.369Z,54.92
2023-01-13T05:20:09.985Z,54.84
2023-01-13T05:22:55.012Z,54.80
2023-01-13T05:25:21.422Z,54.82
2023-01-13T05:27:48.111Z,54.75
2023-01-13T05:30:14.490Z,54.80
2023-01-13T05:32:40.858Z,54.66
2023-01-13T05:35:07.277Z,54.81
2023-01-13T05:37:33.603Z,54.85
2023-01-13T05:40:18.406Z,54.83
2023-01-13T05:43:03.237Z,55.00
2023-01-13T05:45:32.494Z,55.04
2023-01-13T05:47:58.854Z,55.08
2023-01-13T05:50:25.344Z,54.98
2023-01-13T05:52:51.690Z,55.02
2023-01-13T05:55:18.192Z,54.89
2023-01-13T05:57:44.647Z,55.07
2023-01-13T06:00:11.155Z,55.14
2023-01-13T06:02:40.294Z,55.04
2023-01-13T06:05:06.749Z,55.13
2023-01-13T06:07:33.066Z,54.98
2023-01-13T06:09:59.388Z,55.14
2023-01-13T06:12:25.733Z,55.62
2023-01-13T06:14:52.172Z,55.83
2023-01-13T06:17:18.661Z,55.91
2023-01-13T06:19:45.065Z,55.58
2023-01-13T06:22:17.486Z,55.58
2023-01-13T06:24:45.804Z,56.86
2023-01-13T06:27:12.143Z,56.92
2023-01-13T06:29:38.460Z,56.12
2023-01-13T06:32:11.308Z,56.36
2023-01-13T06:34:37.655Z,56.62
2023-01-13T06:37:04.279Z,56.46
2023-01-13T06:39:31.143Z,57.15
2023-01-13T06:42:16.331Z,57.29
2023-01-13T06:44:43.127Z,57.32
2023-01-13T06:47:09.452Z,57.43
2023-01-13T06:49:35.765Z,57.50
2023-01-13T06:52:02.131Z,57.19
2023-01-13T06:54:28.464Z,57.31
2023-01-13T06:56:54.828Z,57.49
2023-01-13T06:59:21.346Z,58.17
2023-01-13T07:01:47.811Z,58.26
2023-01-13T07:04:14.605Z,58.32
2023-01-13T07:06:41.068Z,58.35
2023-01-13T07:09:07.392Z,58.26
2023-01-13T07:11:33.741Z,57.90
2023-01-13T07:14:19.518Z,57.59
2023-01-13T07:16:46.020Z,57.97
2023-01-13T07:19:12.417Z,58.49
2023-01-13T07:21:38.778Z,58.26
2023-01-13T07:24:05.341Z,57.87
2023-01-13T07:26:31.751Z,58.15
2023-01-13T07:28:58.086Z,58.17
2023-01-13T07:31:25.923Z,58.42
2023-01-13T07:33:52.260Z,58.37
2023-01-13T07:36:18.597Z,58.41
2023-01-13T07:38:44.925Z,57.39
2023-01-13T07:41:32.931Z,56.68
2023-01-13T07:44:00.369Z,55.98
2023-01-13T07:46:26.737Z,56.13
2023-01-13T07:48:53.076Z,55.00
2023-01-13T07:51:19.427Z,54.83
2023-01-13T07:53:45.769Z,55.03
2023-01-13T07:56:12.083Z,55.20
2023-01-13T07:58:38.405Z,55.39
2023-01-13T08:01:12.087Z,55.39
2023-01-13T08:03:38.784Z,55.32
2023-01-13T08:06:05.723Z,55.31
2023-01-13T08:08:32.047Z,55.31
2023-01-13T08:10:58.973Z,55.37
2023-01-13T08:13:25.319Z,55.78
2023-01-13T08:15:55.079Z,55.78
2023-01-13T08:18:22.254Z,56.17
2023-01-13T08:20:48.929Z,55.99
2023-01-13T08:23:15.267Z,55.63
2023-01-13T08:25:41.991Z,55.62
2023-01-13T08:28:08.484Z,55.06
2023-01-13T08:30:34.885Z,55.50
2023-01-13T08:33:01.801Z,55.47
2023-01-13T08:35:28.125Z,55.14
2023-01-13T08:37:54.494Z,55.02
2023-01-13T08:40:21.619Z,54.81
2023-01-13T08:42:48.829Z,54.90
2023-01-13T08:45:15.318Z,54.57
2023-01-13T08:47:41.702Z,54.81
2023-01-13T08:50:08.264Z,54.64
2023-01-13T08:52:34.601Z,54.50
2023-01-13T08:55:00.918Z,54.17
2023-01-13T08:57:27.323Z,54.51
2023-01-13T08:59:53.709Z,54.56
2023-01-13T09:02:20.534Z,55.13
2023-01-13T09:04:46.956Z,54.77
2023-01-13T09:07:13.332Z,54.02
2023-01-13T09:09:39.651Z,53.96
2023-01-13T09:12:24.575Z,53.84
2023-01-13T09:14:50.906Z,54.33
2023-01-13T09:17:18.388Z,54.20
2023-01-13T09:19:44.720Z,54.49
2023-01-13T09:22:14.029Z,54.39
2023-01-13T09:24:40.376Z,54.25
2023-01-13T09:27:06.724Z,54.41
2023-01-13T09:29:33.057Z,54.44
2023-01-13T09:31:59.404Z,54.17
2023-01-13T09:34:44.528Z,54.56
2023-01-13T09:37:10.857Z,54.57
2023-01-13T09:39:37.184Z,54.73
2023-01-13T09:42:41.039Z,54.79
2023-01-13T09:45:13.584Z,54.26
2023-01-13T09:47:43.453Z,54.45
2023-01-13T09:50:24.251Z,54.11
2023-01-13T09:52:50.590Z,53.91
2023-01-13T09:55:23.269Z,53.94
2023-01-13T09:57:49.597Z,54.12
2023-01-13T10:00:22.749Z,53.69
2023-01-13T10:03:07.906Z,53.60
2023-01-13T10:05:37.736Z,53.31
2023-01-13T10:08:14.950Z,53.40
2023-01-13T10:10:51.502Z,53.51
2023-01-13T10:13:20.022Z,53.53
2023-01-13T10:15:52.291Z,53.06
2023-01-13T10:18:22.368Z,53.30
2023-01-13T10:21:01.589Z,52.93
2023-01-13T10:23:34.484Z,53.16
2023-01-13T10:26:03.972Z,53.41
2023-01-13T10:28:30.366Z,52.86
2023-01-13T10:30:56.747Z,53.22
2023-01-13T10:33:27.718Z,53.28
2023-01-13T10:36:01.126Z,53.16
2023-01-13T10:38:31.295Z,53.10
2023-01-13T10:40:58.617Z,53.60
2023-01-13T10:43:25.094Z,54.13
2023-01-13T10:45:52.649Z,54.31
2023-01-13T10:48:19.137Z,53.98
2023-01-13T10:50:46.578Z,54.19
2023-01-13T10:53:19.749Z,54.70
2023-01-13T10:55:57.658Z,54.59
2023-01-13T10:58:24.455Z,54.73
2023-01-13T11:00:51.465Z,54.23
2023-01-13T11:03:21.936Z,54.24
2023-01-13T11:05:49.023Z,54.28
2023-01-13T11:08:16.597Z,53.96
2023-01-13T11:10:46.917Z,53.72
2023-01-13T11:13:16.824Z,53.40
2023-01-13T11:15:55.425Z,52.01
2023-01-13T11:18:24.520Z,51.83
2023-01-13T11:20:50.971Z,52.02
2023-01-13T11:23:17.248Z,52.60
2023-01-13T11:25:45.085Z,53.22
2023-01-13T11:28:28.585Z,52.94
2023-01-13T11:30:56.373Z,52.91
2023-01-13T11:33:35.423Z,52.94
2023-01-13T11:36:12.335Z,53.04
2023-01-13T11:38:49.781Z,53.16
2023-01-13T11:41:34.823Z,53.29
2023-01-13T11:44:09.939Z,53.28
2023-01-13T11:46:36.310Z,53.42
2023-01-13T11:49:02.734Z,53.32
2023-01-13T11:51:38.672Z,53.50
2023-01-13T11:54:31.148Z,53.17
2023-01-13T11:57:02.081Z,53.19
2023-01-13T11:59:50.766Z,53.13
2023-01-13T12:02:35.519Z,53.04
2023-01-13T12:05:01.791Z,51.40
2023-01-13T12:07:46.922Z,50.49
2023-01-13T12:10:16.917Z,50.49
2023-01-13T12:12:55.440Z,49.91
2023-01-13T12:15:22.185Z,49.97
2023-01-13T12:17:58.063Z,50.38
2023-01-13T12:20:42.978Z,50.73
2023-01-13T12:23:24.909Z,50.77
2023-01-13T12:25:52.743Z,50.85
2023-01-13T12:28:24.140Z,50.79
2023-01-13T12:30:51.938Z,50.95
2023-01-13T12:33:21.104Z,51.10
2023-01-13T12:35:54.027Z,51.25
2023-01-13T12:38:34.420Z,51.20
2023-01-13T12:41:19.290Z,51.07
2023-01-13T12:44:07.513Z,51.23
2023-01-13T12:46:34.247Z,51.38
2023-01-13T12:49:04.595Z,51.39
2023-01-13T12:51:33.209Z,51.48
2023-01-13T12:54:00.077Z,51.41
2023-01-13T12:56:27.818Z,51.57
2023-01-13T12:59:13.963Z,51.58
2023-01-13T13:01:40.412Z,51.68
2023-01-13T13:04:10.632Z,51.62
2023-01-13T13:06:37.501Z,51.72
2023-01-13T13:09:04.685Z,51.76
2023-01-13T13:11:53.894Z,51.94
2023-01-13T13:14:39.006Z,52.00
2023-01-13T13:17:31.723Z,52.14
2023-01-13T13:19:58.725Z,46.22
2023-01-13T13:22:27.953Z,45.77
2023-01-13T13:24:54.400Z,45.79
2023-01-13T13:27:28.141Z,46.75
2023-01-13T13:29:57.518Z,49.37
2023-01-13T13:32:42.394Z,49.47
2023-01-13T13:35:20.765Z,50.36
2023-01-13T13:38:24.689Z,50.57
2023-01-13T13:41:09.616Z,49.97
2023-01-13T13:43:58.373Z,49.74
2023-01-13T13:46:44.683Z,50.01
2023-01-13T13:49:11.873Z,50.30
2023-01-13T13:51:42.525Z,50.46
2023-01-13T13:54:10.336Z,50.21
2023-01-13T13:56:38.352Z,49.77
2023-01-13T13:59:04.686Z,50.09
2023-01-13T14:01:35.294Z,50.79
2023-01-13T14:04:10.779Z,50.85
2023-01-13T14:06:37.124Z,51.19
2023-01-13T14:09:03.534Z,49.44
2023-01-13T14:11:31.951Z,48.35
2023-01-13T14:14:02.053Z,48.30
2023-01-13T14:16:28.381Z,49.96
2023-01-13T14:18:54.731Z,50.31
2023-01-13T14:21:22.880Z,50.57
2023-01-13T14:23:50.108Z,50.54
2023-01-13T14:26:16.804Z,50.64
2023-01-13T14:28:43.294Z,51.23
2023-01-13T14:31:09.751Z,52.09
2023-01-13T14:33:38.863Z,52.09
2023-01-13T14:36:08.236Z,52.46
2023-01-13T14:38:34.573Z,52.73
2023-01-13T14:41:29.969Z,52.75
2023-01-13T14:43:57.424Z,52.78
2023-01-13T14:46:25.479Z,52.94
2023-01-13T14:48:52.903Z,52.83
2023-01-13T14:51:23.105Z,52.81
2023-01-13T14:53:49.439Z,53.00
2023-01-13T14:56:34.363Z,53.03
2023-01-13T14:59:02.342Z,53.10
2023-01-13T15:01:30.026Z,53.13
2023-01-13T15:04:14.959Z,52.82
2023-01-13T15:06:45.307Z,52.77
2023-01-13T15:09:12.536Z,52.45
2023-01-13T15:11:38.965Z,51.73
2023-01-13T15:14:08.607Z,52.05
2023-01-13T15:16:35.177Z,52.30
2023-01-13T15:19:01.542Z,51.62
2023-01-13T15:21:27.874Z,51.86
2023-01-13T15:23:54.207Z,51.63
2023-01-13T15:26:21.665Z,51.66
2023-01-13T15:28:48.022Z,50.71
2023-01-13T15:31:14.387Z,50.87
2023-01-13T15:33:41.441Z,50.09
2023-01-13T15:36:17.446Z,50.38
2023-01-13T15:38:43.877Z,50.27
2023-01-13T15:41:10.235Z,50.22
2023-01-13T15:43:55.115Z,50.16
2023-01-13T15:46:39.908Z,50.58
2023-01-13T15:49:20.977Z,51.21
2023-01-13T15:51:47.683Z,50.94
2023-01-13T15:54:14.434Z,50.93
2023-01-13T15:56:42.186Z,50.35
2023-01-13T15:59:15.918Z,50.82
2023-01-13T16:01:42.392Z,51.16
2023-01-13T16:04:09.205Z,50.68
2023-01-13T16:06:36.199Z,50.44
2023-01-13T16:09:03.723Z,49.81
2023-01-13T16:11:30.178Z,50.19
2023-01-13T16:13:56.553Z,50.74
2023-01-13T16:16:23.873Z,50.83
2023-01-13T16:18:50.308Z,50.69
2023-01-13T16:21:16.731Z,50.08
2023-01-13T16:23:43.259Z,50.17
2023-01-13T16:26:14.465Z,49.83
2023-01-13T16:28:40.804Z,49.69
2023-01-13T16:31:21.975Z,50.14
2023-01-13T16:33:48.482Z,50.26
2023-01-13T16:36:15.560Z,49.82
2023-01-13T16:38:41.883Z,49.53
2023-01-13T16:41:08.349Z,49.55
2023-01-13T16:43:34.918Z,49.64
2023-01-13T16:46:01.288Z,50.08
2023-01-13T16:48:27.621Z,50.25
2023-01-13T16:50:54.093Z,50.13
2023-01-13T16:53:20.439Z,49.65
2023-01-13T16:55:46.781Z,49.64
2023-01-13T16:58:19.611Z,49.21
2023-01-13T17:00:49.069Z,49.49
2023-01-13T17:03:15.643Z,49.28
2023-01-13T17:05:43.014Z,49.95
2023-01-13T17:08:15.369Z,50.16
2023-01-13T17:10:41.783Z,50.10
2023-01-13T17:13:16.072Z,49.95
2023-01-13T17:15:43.289Z,49.61
2023-01-13T17:18:11.437Z,49.45
2023-01-13T17:20:37.787Z,49.30
2023-01-13T17:23:04.142Z,49.13
2023-01-13T17:25:30.660Z,49.80
2023-01-13T17:27:57.029Z,49.77
2023-01-13T17:30:23.365Z,49.97
2023-01-13T17:32:49.708Z,49.49
2023-01-13T17:35:18.997Z,49.38
2023-01-13T17:37:45.736Z,49.86
2023-01-13T17:40:12.214Z,50.20
2023-01-13T17:42:38.557Z,50.24
2023-01-13T17:45:06.081Z,49.91
2023-01-13T17:47:32.403Z,49.53
2023-01-13T17:49:58.819Z,49.42
2023-01-13T17:52:25.228Z,49.40
2023-01-13T17:54:52.712Z,49.49
2023-01-13T17:57:19.109Z,49.79
2023-01-13T17:59:46.894Z,50.14
2023-01-13T18:02:13.563Z,50.13
2023-01-13T18:04:40.066Z,50.25
2023-01-13T18:07:06.478Z,50.47
2023-01-13T18:09:33.114Z,50.35
2023-01-13T18:11:59.640Z,50.21
2023-01-13T18:14:26.043Z,50.05
2023-01-13T18:16:52.505Z,50.06
2023-01-13T18:19:38.651Z,49.89
2023-01-13T18:22:23.476Z,50.26
2023-01-13T18:25:08.374Z,50.62
2023-01-13T18:27:35.210Z,50.73
2023-01-13T18:30:01.662Z,50.88
2023-01-13T18:32:32.654Z,50.82
2023-01-13T18:35:05.771Z,50.98
2023-01-13T18:37:32.915Z,50.72
2023-01-13T18:39:59.257Z,51.13
2023-01-13T18:42:44.078Z,50.89
2023-01-13T18:45:10.724Z,50.97
2023-01-13T18:47:39.088Z,50.85
2023-01-13T18:50:05.581Z,51.06
2023-01-13T18:52:31.945Z,51.11
2023-01-13T18:54:58.275Z,51.17
2023-01-13T18:57:24.646Z,50.96
2023-01-13T18:59:51.060Z,51.20
2023-01-13T19:02:18.202Z,51.31
2023-01-13T19:04:44.688Z,50.97
2023-01-13T19:07:21.886Z,51.18
2023-01-13T19:09:49.957Z,51.17
2023-01-13T19:12:23.396Z,50.82
2023-01-13T19:14:49.726Z,50.87
2023-01-13T19:17:16.102Z,50.33
2023-01-13T19:19:43.827Z,50.67
2023-01-13T19:22:10.644Z,50.51
2023-01-13T19:24:36.973Z,50.15
2023-01-13T19:27:03.367Z,50.30
2023-01-13T19:29:33.139Z,50.33
2023-01-13T19:32:00.186Z,50.17
2023-01-13T19:34:26.731Z,50.45
2023-01-13T19:36:53.210Z,50.32
2023-01-13T19:39:22.564Z,50.14
2023-01-13T19:42:07.622Z,50.11
2023-01-13T19:44:52.751Z,50.01
2023-01-13T19:47:19.223Z,50.63
2023-01-13T19:49:45.553Z,50.70
2023-01-13T19:52:12.181Z,50.25
2023-01-13T19:54:38.505Z,50.31
2023-01-13T19:57:04.937Z,50.67
2023-01-13T19:59:32.939Z,50.80
2023-01-13T20:02:00.503Z,50.29
2023-01-13T20:04:29.426Z,49.95
2023-01-13T20:06:56.686Z,49.79
2023-01-13T20:09:23.002Z,49.99
2023-01-13T20:11:52.406Z,50.45
2023-01-13T20:14:18.941Z,49.61
2023-01-13T20:16:45.278Z,49.78
2023-01-13T20:19:11.614Z,49.38
2023-01-13T20:21:39.608Z,49.29
2023-01-13T20:24:06.098Z,50.01
2023-01-13T20:26:32.436Z,50.00
2023-01-13T20:28:58.787Z,49.84
2023-01-13T20:31:25.179Z,49.75
2023-01-13T20:33:51.598Z,49.41
2023-01-13T20:36:25.289Z,49.12
2023-01-13T20:38:51.625Z,49.32
2023-01-13T20:41:36.647Z,49.30
2023-01-13T20:44:02.965Z,49.30
2023-01-13T20:46:29.457Z,49.29
2023-01-13T20:48:55.875Z,48.97
2023-01-13T20:51:27.915Z,49.29
2023-01-13T20:53:55.701Z,49.22
2023-01-13T20:56:22.102Z,49.38
2023-01-13T20:58:48.417Z,50.05
2023-01-13T21:01:14.833Z,49.63
2023-01-13T21:03:41.283Z,49.65
2023-01-13T21:06:08.154Z,49.97
2023-01-13T21:08:34.489Z,50.32
2023-01-13T21:11:02.342Z,50.24
2023-01-13T21:13:48.973Z,50.09
2023-01-13T21:16:15.400Z,50.35
2023-01-13T21:19:00.268Z,50.01
2023-01-13T21:21:26.620Z,50.24
2023-01-13T21:23:53.086Z,50.21
2023-01-13T21:26:19.898Z,50.48
2023-01-13T21:28:46.356Z,50.33
2023-01-13T21:31:12.674Z,50.29
2023-01-13T21:33:39.299Z,50.14
2023-01-13T21:36:06.057Z,49.87
2023-01-13T21:38:32.575Z,50.00
2023-01-13T21:41:02.456Z,49.84
2023-01-13T21:43:47.601Z,49.99
2023-01-13T21:46:32.723Z,50.35
2023-01-13T21:48:59.185Z,50.70
2023-01-13T21:51:25.581Z,50.80
2023-01-13T21:53:51.917Z,50.67
2023-01-13T21:56:18.232Z,50.73
2023-01-13T21:58:44.566Z,51.19
2023-01-13T22:01:11.900Z,50.83
2023-01-13T22:03:57.529Z,50.76
2023-01-13T22:06:24.082Z,51.06
2023-01-13T22:08:50.588Z,51.11
2023-01-13T22:11:16.932Z,51.01
2023-01-13T22:14:02.007Z,50.94
2023-01-13T22:16:28.393Z,50.83
2023-01-13T22:18:54.747Z,50.74
2023-01-13T22:21:21.101Z,50.72
2023-01-13T22:23:50.565Z,51.00
2023-01-13T22:26:17.540Z,51.02
2023-01-13T22:28:44.114Z,51.31
2023-01-13T22:31:11.006Z,51.24
2023-01-13T22:33:37.568Z,51.01
2023-01-13T22:36:04.633Z,50.91
2023-01-13T22:38:31.065Z,50.81
2023-01-13T22:40:57.903Z,51.07
2023-01-13T22:43:24.364Z,51.21
2023-01-13T22:46:19.886Z,50.93
2023-01-13T22:48:48.184Z,51.07
2023-01-13T22:51:15.133Z,51.45
2023-01-13T22:53:41.463Z,51.06
2023-01-13T22:56:08.015Z,51.08
2023-01-13T22:58:34.361Z,50.70
2023-01-13T23:01:07.542Z,51.06
2023-01-13T23:03:33.933Z,51.44
2023-01-13T23:06:01.569Z,50.92
2023-01-13T23:08:27.923Z,51.33
2023-01-13T23:10:59.816Z,51.37
2023-01-13T23:13:26.159Z,51.44
2023-01-13T23:15:52.519Z,51.43
2023-01-13T23:18:19.013Z,51.63
2023-01-13T23:20:45.383Z,51.42
2023-01-13T23:23:11.730Z,51.64
2023-01-13T23:25:38.078Z,51.56
2023-01-13T23:28:04.443Z,51.88
2023-01-13T23:30:30.824Z,51.66
2023-01-13T23:32:57.330Z,51.60
2023-01-13T23:35:23.687Z,51.23
2023-01-13T23:37:50.033Z,51.49
2023-01-13T23:40:16.367Z,51.36
2023-01-13T23:42:42.705Z,51.44
2023-01-13T23:45:09.414Z,51.48
2023-01-13T23:47:36.261Z,51.61
2023-01-13T23:50:02.918Z,51.49
2023-01-13T23:52:29.259Z,51.96
2023-01-13T23:54:55.695Z,52.18
2023-01-13T23:57:22.172Z,52.07
2023-01-13T23:59:48.496Z,51.90
